sensor_id;sensor_type;location;lat;lon;timestamp;pressure;altitude;pressure_sealevel;temperature;humidity
70921;BME280;58572;48.110;19.838;2023-07-02T00:01:53;96803.44;;;22.15;69.16
70921;BME280;58572;48.110;19.838;2023-07-02T00:04:21;96807.75;;;22.09;69.38
70921;BME280;58572;48.110;19.838;2023-07-02T00:06:49;96808.94;;;22.12;68.62
70921;BME280;58572;48.110;19.838;2023-07-02T00:09:15;96807.78;;;22.13;68.84
70921;BME280;58572;48.110;19.838;2023-07-02T00:11:44;96804.97;;;22.06;68.88
70921;BME280;58572;48.110;19.838;2023-07-02T00:14:13;96765.09;;;21.70;68.88
70921;BME280;58572;48.110;19.838;2023-07-02T00:16:43;96800.84;;;21.89;69.20
70921;BME280;58572;48.110;19.838;2023-07-02T00:19:11;96819.09;;;21.97;68.92
70921;BME280;58572;48.110;19.838;2023-07-02T00:21:40;96817.84;;;21.47;70.86
70921;BME280;58572;48.110;19.838;2023-07-02T00:24:08;96814.47;;;21.67;70.34
70921;BME280;58572;48.110;19.838;2023-07-02T00:26:37;96818.44;;;21.66;70.37
70921;BME280;58572;48.110;19.838;2023-07-02T00:29:06;96809.78;;;21.72;70.04
70921;BME280;58572;48.110;19.838;2023-07-02T00:31:34;96817.44;;;21.85;69.23
70921;BME280;58572;48.110;19.838;2023-07-02T00:34:01;96826.47;;;21.82;69.24
70921;BME280;58572;48.110;19.838;2023-07-02T00:36:30;96827.09;;;21.65;69.66
70921;BME280;58572;48.110;19.838;2023-07-02T00:38:59;96815.34;;;21.75;69.72
70921;BME280;58572;48.110;19.838;2023-07-02T00:41:27;96814.47;;;21.67;69.47
70921;BME280;58572;48.110;19.838;2023-07-02T00:43:54;96810.53;;;21.68;69.44
70921;BME280;58572;48.110;19.838;2023-07-02T00:46:22;96806.47;;;21.55;69.80
70921;BME280;58572;48.110;19.838;2023-07-02T00:48:51;96808.81;;;21.53;70.06
70921;BME280;58572;48.110;19.838;2023-07-02T00:51:20;96811.94;;;21.48;70.07
70921;BME280;58572;48.110;19.838;2023-07-02T00:53:50;96808.13;;;21.23;71.08
70921;BME280;58572;48.110;19.838;2023-07-02T00:56:19;96805.94;;;21.39;70.32
70921;BME280;58572;48.110;19.838;2023-07-02T00:58:48;96806.03;;;21.13;70.92
70921;BME280;58572;48.110;19.838;2023-07-02T01:01:17;96684.31;;;19.75;73.83
70921;BME280;58572;48.110;19.838;2023-07-02T01:03:53;96817.88;;;19.97;77.41
70921;BME280;58572;48.110;19.838;2023-07-02T01:06:23;96815.53;;;20.52;76.27
70921;BME280;58572;48.110;19.838;2023-07-02T01:08:55;96746.63;;;20.32;73.69
70921;BME280;58572;48.110;19.838;2023-07-02T01:11:27;96763.28;;;20.69;72.21
70921;BME280;58572;48.110;19.838;2023-07-02T01:13:59;96812.31;;;21.10;71.02
70921;BME280;58572;48.110;19.838;2023-07-02T01:16:29;96812.31;;;21.10;71.26
70921;BME280;58572;48.110;19.838;2023-07-02T01:18:59;96701.56;;;20.25;71.83
70921;BME280;58572;48.110;19.838;2023-07-02T01:21:31;96787.53;;;20.83;71.63
70921;BME280;58572;48.110;19.838;2023-07-02T01:23:59;96809.47;;;21.02;71.62
70921;BME280;58572;48.110;19.838;2023-07-02T01:26:30;96815.34;;;20.97;71.46
70921;BME280;58572;48.110;19.838;2023-07-02T01:29:00;96795.50;;;20.88;71.29
70921;BME280;58572;48.110;19.838;2023-07-02T01:31:27;96822.41;;;20.95;71.55
70921;BME280;58572;48.110;19.838;2023-07-02T01:33:54;96827.13;;;20.94;71.43
70921;BME280;58572;48.110;19.838;2023-07-02T01:36:21;96749.38;;;20.32;72.03
70921;BME280;58572;48.110;19.838;2023-07-02T01:38:50;96819.09;;;20.82;72.09
70921;BME280;58572;48.110;19.838;2023-07-02T01:41:17;96811.91;;;20.78;71.78
70921;BME280;58572;48.110;19.838;2023-07-02T01:43:44;96814.75;;;20.81;71.72
70921;BME280;58572;48.110;19.838;2023-07-02T01:46:12;96809.63;;;20.83;71.63
70921;BME280;58572;48.110;19.838;2023-07-02T01:48:39;96812.91;;;20.92;70.94
70921;BME280;58572;48.110;19.838;2023-07-02T01:51:06;96813.41;;;20.71;72.15
70921;BME280;58572;48.110;19.838;2023-07-02T01:53:33;96817.72;;;20.69;72.06
70921;BME280;58572;48.110;19.838;2023-07-02T01:56:02;96752.00;;;20.22;72.07
70921;BME280;58572;48.110;19.838;2023-07-02T01:58:29;96805.31;;;20.56;72.10
70921;BME280;58572;48.110;19.838;2023-07-02T02:00:57;96814.53;;;20.67;72.32
70921;BME280;58572;48.110;19.838;2023-07-02T02:03:24;96822.88;;;20.70;71.95
70921;BME280;58572;48.110;19.838;2023-07-02T02:05:51;96695.50;;;20.12;71.24
70921;BME280;58572;48.110;19.838;2023-07-02T02:08:18;96811.03;;;20.70;71.84
70921;BME280;58572;48.110;19.838;2023-07-02T02:10:45;96812.53;;;20.64;71.93
70921;BME280;58572;48.110;19.838;2023-07-02T02:13:14;96818.94;;;20.71;71.50
70921;BME280;58572;48.110;19.838;2023-07-02T02:15:42;96810.19;;;20.66;72.05
70921;BME280;58572;48.110;19.838;2023-07-02T02:18:09;96750.03;;;20.22;71.85
70921;BME280;58572;48.110;19.838;2023-07-02T02:20:37;96815.63;;;20.59;71.72
70921;BME280;58572;48.110;19.838;2023-07-02T02:23:04;96812.72;;;20.48;72.71
70921;BME280;58572;48.110;19.838;2023-07-02T02:25:31;96816.22;;;20.45;72.82
70921;BME280;58572;48.110;19.838;2023-07-02T02:27:58;96810.00;;;20.52;72.16
70921;BME280;58572;48.110;19.838;2023-07-02T02:30:27;96815.94;;;20.54;71.99
70921;BME280;58572;48.110;19.838;2023-07-02T02:32:55;96809.78;;;20.37;72.26
70921;BME280;58572;48.110;19.838;2023-07-02T02:35:22;96817.81;;;20.46;72.35
70921;BME280;58572;48.110;19.838;2023-07-02T02:37:49;96814.97;;;20.39;72.65
70921;BME280;58572;48.110;19.838;2023-07-02T02:40:16;96815.00;;;20.43;72.46
70921;BME280;58572;48.110;19.838;2023-07-02T02:42:43;96819.34;;;20.44;72.67
70921;BME280;58572;48.110;19.838;2023-07-02T02:45:11;96815.00;;;20.43;72.49
70921;BME280;58572;48.110;19.838;2023-07-02T02:47:40;96814.09;;;20.35;72.71
70921;BME280;58572;48.110;19.838;2023-07-02T02:50:08;96812.19;;;20.39;72.72
70921;BME280;58572;48.110;19.838;2023-07-02T02:52:36;96815.84;;;20.47;72.18
70921;BME280;58572;48.110;19.838;2023-07-02T02:55:06;96814.88;;;20.35;72.74
70921;BME280;58572;48.110;19.838;2023-07-02T02:57:33;96813.78;;;20.40;72.39
70921;BME280;58572;48.110;19.838;2023-07-02T03:00:01;96811.38;;;20.38;72.46
70921;BME280;58572;48.110;19.838;2023-07-02T03:02:28;96812.25;;;20.43;71.83
70921;BME280;58572;48.110;19.838;2023-07-02T03:04:57;96820.09;;;20.40;71.85
70921;BME280;58572;48.110;19.838;2023-07-02T03:07:27;96812.81;;;20.29;72.19
70921;BME280;58572;48.110;19.838;2023-07-02T03:09:55;96825.41;;;20.26;72.63
70921;BME280;58572;48.110;19.838;2023-07-02T03:12:22;96714.50;;;19.64;72.27
70921;BME280;58572;48.110;19.838;2023-07-02T03:14:50;96810.44;;;20.27;72.42
70921;BME280;58572;48.110;19.838;2023-07-02T03:17:20;96813.50;;;20.22;72.79
70921;BME280;58572;48.110;19.838;2023-07-02T03:19:48;96820.34;;;20.32;72.03
70921;BME280;58572;48.110;19.838;2023-07-02T03:22:17;96822.59;;;20.23;72.34
70921;BME280;58572;48.110;19.838;2023-07-02T03:24:45;96776.63;;;19.81;72.77
70921;BME280;58572;48.110;19.838;2023-07-02T03:27:12;96821.91;;;20.03;73.16
70921;BME280;58572;48.110;19.838;2023-07-02T03:29:40;96821.69;;;19.89;74.82
70921;BME280;58572;48.110;19.838;2023-07-02T03:32:08;96703.63;;;19.26;73.59
70921;BME280;58572;48.110;19.838;2023-07-02T03:34:35;96801.41;;;20.04;72.81
70921;BME280;58572;48.110;19.838;2023-07-02T03:37:02;96813.09;;;20.20;72.65
70921;BME280;58572;48.110;19.838;2023-07-02T03:39:31;96777.44;;;19.82;71.98
70921;BME280;58572;48.110;19.838;2023-07-02T03:41:59;96785.44;;;19.90;72.25
70921;BME280;58572;48.110;19.838;2023-07-02T03:44:27;96573.72;;;18.55;72.09
70921;BME280;58572;48.110;19.838;2023-07-02T03:46:54;96721.34;;;19.51;72.31
70921;BME280;58572;48.110;19.838;2023-07-02T03:49:21;96816.16;;;20.15;72.30
70921;BME280;58572;48.110;19.838;2023-07-02T03:51:48;96823.16;;;20.09;72.55
70921;BME280;58572;48.110;19.838;2023-07-02T03:54:15;96825.09;;;20.05;72.92
70921;BME280;58572;48.110;19.838;2023-07-02T03:56:46;96818.09;;;20.11;72.34
70921;BME280;58572;48.110;19.838;2023-07-02T03:59:13;96719.34;;;19.48;72.36
70921;BME280;58572;48.110;19.838;2023-07-02T04:01:41;96664.56;;;19.20;71.85
70921;BME280;58572;48.110;19.838;2023-07-02T04:04:09;96830.81;;;20.19;72.20
70921;BME280;58572;48.110;19.838;2023-07-02T04:06:37;96742.06;;;19.64;72.00
70921;BME280;58572;48.110;19.838;2023-07-02T04:09:04;96838.63;;;20.14;72.16
70921;BME280;58572;48.110;19.838;2023-07-02T04:11:32;96836.75;;;19.95;72.80
70921;BME280;58572;48.110;19.838;2023-07-02T04:14:01;96781.84;;;19.63;72.57
70921;BME280;58572;48.110;19.838;2023-07-02T04:16:29;96828.03;;;19.93;72.90
70921;BME280;58572;48.110;19.838;2023-07-02T04:18:56;96829.97;;;20.15;72.21
70921;BME280;58572;48.110;19.838;2023-07-02T04:21:24;96757.44;;;19.65;72.64
70921;BME280;58572;48.110;19.838;2023-07-02T04:23:51;96836.44;;;20.26;72.00
70921;BME280;58572;48.110;19.838;2023-07-02T04:26:18;96833.88;;;20.14;72.11
70921;BME280;58572;48.110;19.838;2023-07-02T04:28:46;96775.84;;;19.81;71.84
70921;BME280;58572;48.110;19.838;2023-07-02T04:31:15;96841.88;;;19.73;74.24
70921;BME280;58572;48.110;19.838;2023-07-02T04:33:43;96610.41;;;17.98;75.16
70921;BME280;58572;48.110;19.838;2023-07-02T04:36:10;96841.81;;;20.16;72.41
70921;BME280;58572;48.110;19.838;2023-07-02T04:38:38;96845.06;;;19.75;77.82
70921;BME280;58572;48.110;19.838;2023-07-02T04:41:05;96764.25;;;18.64;82.78
70921;BME280;58572;48.110;19.838;2023-07-02T04:43:36;96822.22;;;19.52;75.95
70921;BME280;58572;48.110;19.838;2023-07-02T04:46:04;96492.38;;;17.89;74.01
70921;BME280;58572;48.110;19.838;2023-07-02T04:48:35;96829.31;;;20.25;73.09
70921;BME280;58572;48.110;19.838;2023-07-02T04:51:03;96846.66;;;20.49;71.67
70921;BME280;58572;48.110;19.838;2023-07-02T04:53:30;96848.81;;;20.36;72.53
70921;BME280;58572;48.110;19.838;2023-07-02T04:55:58;96823.69;;;20.18;72.51
70921;BME280;58572;48.110;19.838;2023-07-02T04:58:26;96840.06;;;20.57;71.68
70921;BME280;58572;48.110;19.838;2023-07-02T05:00:54;96836.03;;;20.51;71.78
70921;BME280;58572;48.110;19.838;2023-07-02T05:03:21;96844.41;;;20.58;71.25
70921;BME280;58572;48.110;19.838;2023-07-02T05:05:50;96845.81;;;20.45;71.91
70921;BME280;58572;48.110;19.838;2023-07-02T05:08:18;96817.00;;;20.19;72.06
70921;BME280;58572;48.110;19.838;2023-07-02T05:10:47;96817.91;;;20.27;71.42
70921;BME280;58572;48.110;19.838;2023-07-02T05:13:14;96833.69;;;20.26;72.33
70921;BME280;58572;48.110;19.838;2023-07-02T05:15:41;96870.66;;;20.45;71.98
70921;BME280;58572;48.110;19.838;2023-07-02T05:18:08;96857.22;;;19.94;79.73
70921;BME280;58572;48.110;19.838;2023-07-02T05:20:36;96843.44;;;20.20;72.84
70921;BME280;58572;48.110;19.838;2023-07-02T05:23:06;96826.41;;;19.88;79.64
70921;BME280;58572;48.110;19.838;2023-07-02T05:25:33;96830.84;;;19.73;76.96
70921;BME280;58572;48.110;19.838;2023-07-02T05:28:01;96855.41;;;19.79;83.83
70921;BME280;58572;48.110;19.838;2023-07-02T05:30:28;96863.34;;;20.06;75.76
70921;BME280;58572;48.110;19.838;2023-07-02T05:32:55;96828.69;;;20.35;73.00
70921;BME280;58572;48.110;19.838;2023-07-02T05:35:23;96832.47;;;20.80;70.93
70921;BME280;58572;48.110;19.838;2023-07-02T05:37:51;96855.69;;;21.06;70.92
70921;BME280;58572;48.110;19.838;2023-07-02T05:40:20;96855.78;;;21.13;76.84
70921;BME280;58572;48.110;19.838;2023-07-02T05:42:48;96853.16;;;21.23;70.94
70921;BME280;58572;48.110;19.838;2023-07-02T05:45:16;96861.25;;;21.09;73.09
70921;BME280;58572;48.110;19.838;2023-07-02T05:47:43;96813.75;;;20.66;73.84
70921;BME280;58572;48.110;19.838;2023-07-02T05:50:10;96867.09;;;20.74;79.72
70921;BME280;58572;48.110;19.838;2023-07-02T05:52:38;96861.81;;;20.35;81.83
70921;BME280;58572;48.110;19.838;2023-07-02T05:55:08;96816.59;;;20.44;75.13
70921;BME280;58572;48.110;19.838;2023-07-02T05:57:37;96868.69;;;20.75;79.43
70921;BME280;58572;48.110;19.838;2023-07-02T06:00:06;96863.56;;;21.03;77.67
70921;BME280;58572;48.110;19.838;2023-07-02T06:02:33;96871.19;;;21.47;72.34
70921;BME280;58572;48.110;19.838;2023-07-02T06:05:01;96874.91;;;21.62;71.94
70921;BME280;58572;48.110;19.838;2023-07-02T06:07:28;96878.72;;;21.17;74.18
70921;BME280;58572;48.110;19.838;2023-07-02T06:09:55;96881.63;;;21.27;74.17
70921;BME280;58572;48.110;19.838;2023-07-02T06:12:22;96896.09;;;21.17;75.50
70921;BME280;58572;48.110;19.838;2023-07-02T06:14:51;96882.09;;;21.33;75.42
70921;BME280;58572;48.110;19.838;2023-07-02T06:17:19;96882.09;;;20.73;79.25
70921;BME280;58572;48.110;19.838;2023-07-02T06:19:48;96884.44;;;21.31;76.80
70921;BME280;58572;48.110;19.838;2023-07-02T06:22:16;96883.94;;;21.59;74.96
70921;BME280;58572;48.110;19.838;2023-07-02T06:24:43;96883.91;;;21.55;77.57
70921;BME280;58572;48.110;19.838;2023-07-02T06:27:10;96830.22;;;20.89;76.84
70921;BME280;58572;48.110;19.838;2023-07-02T06:29:37;96876.50;;;21.26;78.86
70921;BME280;58572;48.110;19.838;2023-07-02T06:32:07;96878.59;;;22.17;73.31
70921;BME280;58572;48.110;19.838;2023-07-02T06:34:34;96882.41;;;22.02;75.17
70921;BME280;58572;48.110;19.838;2023-07-02T06:37:02;96893.00;;;22.41;73.37
70921;BME280;58572;48.110;19.838;2023-07-02T06:39:29;96852.22;;;21.86;72.08
70921;BME280;58572;48.110;19.838;2023-07-02T06:41:57;96892.31;;;22.03;73.61
70921;BME280;58572;48.110;19.838;2023-07-02T06:44:24;96895.88;;;21.66;76.71
70921;BME280;58572;48.110;19.838;2023-07-02T06:46:52;96901.91;;;21.76;75.60
70921;BME280;58572;48.110;19.838;2023-07-02T06:49:20;96914.91;;;21.04;78.79
70921;BME280;58572;48.110;19.838;2023-07-02T06:51:47;96918.66;;;20.89;80.58
70921;BME280;58572;48.110;19.838;2023-07-02T06:54:15;96915.19;;;21.59;76.88
70921;BME280;58572;48.110;19.838;2023-07-02T06:56:42;96908.97;;;22.61;73.66
70921;BME280;58572;48.110;19.838;2023-07-02T06:59:09;96913.28;;;22.52;74.33
70921;BME280;58572;48.110;19.838;2023-07-02T07:01:36;96913.38;;;22.66;71.98
70921;BME280;58572;48.110;19.838;2023-07-02T07:04:04;96913.31;;;22.59;72.24
70921;BME280;58572;48.110;19.838;2023-07-02T07:06:33;96914.38;;;22.91;71.04
70921;BME280;58572;48.110;19.838;2023-07-02T07:09:00;96916.38;;;22.43;72.22
70921;BME280;58572;48.110;19.838;2023-07-02T07:11:28;96918.94;;;22.73;72.19
70921;BME280;58572;48.110;19.838;2023-07-02T07:13:55;96921.16;;;21.65;73.27
70921;BME280;58572;48.110;19.838;2023-07-02T07:16:25;96929.34;;;22.87;70.22
70921;BME280;58572;48.110;19.838;2023-07-02T07:18:52;96920.88;;;22.66;71.13
70921;BME280;58572;48.110;19.838;2023-07-02T07:21:20;96928.97;;;22.88;71.13
70921;BME280;58572;48.110;19.838;2023-07-02T07:23:50;96927.97;;;23.18;70.83
70921;BME280;58572;48.110;19.838;2023-07-02T07:26:17;96935.06;;;23.12;71.15
70921;BME280;58572;48.110;19.838;2023-07-02T07:28:45;96941.06;;;22.66;72.65
70921;BME280;58572;48.110;19.838;2023-07-02T07:31:12;96938.34;;;23.39;69.76
70921;BME280;58572;48.110;19.838;2023-07-02T07:33:39;96927.22;;;23.32;70.03
70921;BME280;58572;48.110;19.838;2023-07-02T07:36:06;96928.44;;;23.38;70.31
70921;BME280;58572;48.110;19.838;2023-07-02T07:38:34;96920.13;;;23.45;70.24
70921;BME280;58572;48.110;19.838;2023-07-02T07:41:03;96926.38;;;23.17;71.15
70921;BME280;58572;48.110;19.838;2023-07-02T07:43:30;96939.16;;;23.46;70.72
70921;BME280;58572;48.110;19.838;2023-07-02T07:45:58;96930.25;;;24.03;68.73
70921;BME280;58572;48.110;19.838;2023-07-02T07:48:25;96928.97;;;23.79;70.05
70921;BME280;58572;48.110;19.838;2023-07-02T07:50:52;96928.28;;;24.67;67.41
70921;BME280;58572;48.110;19.838;2023-07-02T07:53:19;96927.44;;;25.13;65.06
70921;BME280;58572;48.110;19.838;2023-07-02T07:55:47;96929.44;;;25.02;64.86
70921;BME280;58572;48.110;19.838;2023-07-02T07:58:15;96931.44;;;24.73;67.17
70921;BME280;58572;48.110;19.838;2023-07-02T08:00:42;96921.03;;;25.23;65.47
70921;BME280;58572;48.110;19.838;2023-07-02T08:03:10;96918.56;;;25.43;64.18
70921;BME280;58572;48.110;19.838;2023-07-02T08:05:38;96919.91;;;25.03;66.67
70921;BME280;58572;48.110;19.838;2023-07-02T08:08:05;96924.94;;;25.43;66.00
70921;BME280;58572;48.110;19.838;2023-07-02T08:10:34;96937.03;;;24.55;65.14
70921;BME280;58572;48.110;19.838;2023-07-02T08:13:01;96925.31;;;25.49;64.41
70921;BME280;58572;48.110;19.838;2023-07-02T08:15:30;96925.50;;;24.14;65.63
70921;BME280;58572;48.110;19.838;2023-07-02T08:17:57;96926.72;;;24.38;66.55
70921;BME280;58572;48.110;19.838;2023-07-02T08:20:25;96933.44;;;24.23;68.04
70921;BME280;58572;48.110;19.838;2023-07-02T08:22:53;96928.25;;;25.10;65.36
70921;BME280;58572;48.110;19.838;2023-07-02T08:25:20;96931.28;;;25.48;64.84
70921;BME280;58572;48.110;19.838;2023-07-02T08:27:48;96925.44;;;25.17;65.72
70921;BME280;58572;48.110;19.838;2023-07-02T08:30:16;96914.66;;;25.30;65.86
70921;BME280;58572;48.110;19.838;2023-07-02T08:32:45;96923.25;;;25.64;62.27
70921;BME280;58572;48.110;19.838;2023-07-02T08:35:13;96922.66;;;26.01;62.96
70921;BME280;58572;48.110;19.838;2023-07-02T08:37:40;96870.06;;;26.10;61.63
70921;BME280;58572;48.110;19.838;2023-07-02T08:40:15;96875.94;;;26.23;61.58
70921;BME280;58572;48.110;19.838;2023-07-02T08:42:44;96896.88;;;25.86;63.53
70921;BME280;58572;48.110;19.838;2023-07-02T08:45:13;96926.03;;;26.30;61.72
70921;BME280;58572;48.110;19.838;2023-07-02T08:47:41;96872.59;;;26.42;59.89
70921;BME280;58572;48.110;19.838;2023-07-02T08:50:11;96933.91;;;26.87;60.44
70921;BME280;58572;48.110;19.838;2023-07-02T08:52:38;96933.75;;;26.08;62.66
70921;BME280;58572;48.110;19.838;2023-07-02T08:55:07;96931.44;;;26.55;62.91
70921;BME280;58572;48.110;19.838;2023-07-02T08:57:35;96920.47;;;26.30;60.18
70921;BME280;58572;48.110;19.838;2023-07-02T09:02:34;96933.91;;;26.46;58.40
70921;BME280;58572;48.110;19.838;2023-07-02T09:05:16;96922.28;;;25.95;60.09
70921;BME280;58572;48.110;19.838;2023-07-02T09:07:50;96924.88;;;26.76;57.28
70921;BME280;58572;48.110;19.838;2023-07-02T09:10:51;96895.00;;;26.28;58.74
70921;BME280;58572;48.110;19.838;2023-07-02T09:13:27;96927.19;;;26.81;55.42
70921;BME280;58572;48.110;19.838;2023-07-02T09:16:27;96938.41;;;26.77;56.24
70921;BME280;58572;48.110;19.838;2023-07-02T09:19:10;96925.47;;;26.94;55.70
70921;BME280;58572;48.110;19.838;2023-07-02T09:22:07;96909.53;;;26.98;54.87
70921;BME280;58572;48.110;19.838;2023-07-02T09:24:56;96928.59;;;27.41;55.42
70921;BME280;58572;48.110;19.838;2023-07-02T09:27:39;96935.38;;;27.40;54.34
70921;BME280;58572;48.110;19.838;2023-07-02T09:30:19;96939.44;;;26.49;56.14
70921;BME280;58572;48.110;19.838;2023-07-02T09:32:52;96926.63;;;26.03;55.72
70921;BME280;58572;48.110;19.838;2023-07-02T09:35:25;96948.41;;;26.19;55.36
70921;BME280;58572;48.110;19.838;2023-07-02T09:41:49;96947.50;;;26.40;54.37
70921;BME280;58572;48.110;19.838;2023-07-02T09:44:25;96953.81;;;26.44;52.67
70921;BME280;58572;48.110;19.838;2023-07-02T09:47:37;96944.44;;;26.68;53.50
70921;BME280;58572;48.110;19.838;2023-07-02T09:51:20;96957.72;;;25.91;51.54
70921;BME280;58572;48.110;19.838;2023-07-02T09:54:06;96935.16;;;26.82;51.44
70921;BME280;58572;48.110;19.838;2023-07-02T09:56:54;96954.03;;;26.67;52.25
70921;BME280;58572;48.110;19.838;2023-07-02T09:59:28;96945.25;;;26.69;52.48
70921;BME280;58572;48.110;19.838;2023-07-02T10:02:14;96945.81;;;26.91;51.51
70921;BME280;58572;48.110;19.838;2023-07-02T10:06:01;96950.50;;;27.08;52.18
70921;BME280;58572;48.110;19.838;2023-07-02T10:09:02;96955.03;;;27.29;52.37
70921;BME280;58572;48.110;19.838;2023-07-02T10:11:36;96921.16;;;27.27;50.83
70921;BME280;58572;48.110;19.838;2023-07-02T10:14:22;96956.59;;;27.67;51.29
70921;BME280;58572;48.110;19.838;2023-07-02T10:20:37;96947.47;;;27.60;51.58
70921;BME280;58572;48.110;19.838;2023-07-02T10:23:12;96948.69;;;26.84;52.44
70921;BME280;58572;48.110;19.838;2023-07-02T10:26:50;96947.00;;;27.69;52.63
70921;BME280;58572;48.110;19.838;2023-07-02T10:29:44;96945.44;;;26.89;52.26
70921;BME280;58572;48.110;19.838;2023-07-02T10:32:43;96951.50;;;26.32;55.88
70921;BME280;58572;48.110;19.838;2023-07-02T10:35:44;96941.00;;;27.70;53.36
70921;BME280;58572;48.110;19.838;2023-07-02T10:39:25;96947.03;;;28.26;50.13
70921;BME280;58572;48.110;19.838;2023-07-02T10:42:13;96934.00;;;27.85;52.23
70921;BME280;58572;48.110;19.838;2023-07-02T10:44:57;96931.78;;;27.73;51.67
70921;BME280;58572;48.110;19.838;2023-07-02T10:47:44;96923.44;;;27.01;54.03
70921;BME280;58572;48.110;19.838;2023-07-02T10:50:36;96934.41;;;26.78;55.94
70921;BME280;58572;48.110;19.838;2023-07-02T10:56:55;96929.66;;;28.11;51.93
70921;BME280;58572;48.110;19.838;2023-07-02T10:59:29;96923.88;;;27.68;54.95
70921;BME280;58572;48.110;19.838;2023-07-02T11:02:24;96923.56;;;27.59;52.22
70921;BME280;58572;48.110;19.838;2023-07-02T11:05:11;96923.38;;;27.43;53.68
70921;BME280;58572;48.110;19.838;2023-07-02T11:07:50;96920.25;;;27.71;51.87
70921;BME280;58572;48.110;19.838;2023-07-02T11:10:23;96922.50;;;28.07;50.34
70921;BME280;58572;48.110;19.838;2023-07-02T11:12:52;96898.44;;;28.43;50.84
70921;BME280;58572;48.110;19.838;2023-07-02T11:15:20;96761.47;;;27.43;51.65
70921;BME280;58572;48.110;19.838;2023-07-02T11:17:48;96889.78;;;28.07;51.38
70921;BME280;58572;48.110;19.838;2023-07-02T11:20:15;96910.44;;;27.56;52.44
70921;BME280;58572;48.110;19.838;2023-07-02T11:22:42;96911.06;;;27.71;52.67
70921;BME280;58572;48.110;19.838;2023-07-02T11:25:12;96905.28;;;28.39;51.31
70921;BME280;58572;48.110;19.838;2023-07-02T11:27:41;96900.13;;;28.60;50.54
70921;BME280;58572;48.110;19.838;2023-07-02T11:30:11;96871.88;;;27.17;52.34
70921;BME280;58572;48.110;19.838;2023-07-02T11:32:48;96908.09;;;28.12;49.74
70921;BME280;58572;48.110;19.838;2023-07-02T11:35:16;96903.41;;;28.55;50.13
70921;BME280;58572;48.110;19.838;2023-07-02T11:37:44;96906.31;;;28.48;50.21
70921;BME280;58572;48.110;19.838;2023-07-02T11:40:12;96896.22;;;28.31;50.15
70921;BME280;58572;48.110;19.838;2023-07-02T11:42:40;96895.13;;;28.72;49.20
70921;BME280;58572;48.110;19.838;2023-07-02T11:45:08;96905.13;;;28.49;50.03
70921;BME280;58572;48.110;19.838;2023-07-02T11:47:37;96891.59;;;28.68;48.88
70921;BME280;58572;48.110;19.838;2023-07-02T11:50:05;96897.75;;;29.26;46.87
70921;BME280;58572;48.110;19.838;2023-07-02T11:52:33;96895.81;;;29.22;47.73
70921;BME280;58572;48.110;19.838;2023-07-02T11:55:00;96907.72;;;28.37;49.21
70921;BME280;58572;48.110;19.838;2023-07-02T11:57:28;96916.03;;;26.81;52.30
70921;BME280;58572;48.110;19.838;2023-07-02T11:59:55;96901.41;;;28.33;48.13
70921;BME280;58572;48.110;19.838;2023-07-02T12:02:22;96893.38;;;29.24;48.03
70921;BME280;58572;48.110;19.838;2023-07-02T12:04:51;96898.00;;;28.18;50.47
70921;BME280;58572;48.110;19.838;2023-07-02T12:07:18;96887.41;;;28.06;51.05
70921;BME280;58572;48.110;19.838;2023-07-02T12:09:45;96896.72;;;27.69;52.02
70921;BME280;58572;48.110;19.838;2023-07-02T12:12:13;96891.13;;;27.04;53.24
70921;BME280;58572;48.110;19.838;2023-07-02T12:14:41;96890.72;;;27.40;51.79
70921;BME280;58572;48.110;19.838;2023-07-02T12:17:09;96889.34;;;28.09;50.33
70921;BME280;58572;48.110;19.838;2023-07-02T12:19:38;96885.31;;;27.86;50.61
70921;BME280;58572;48.110;19.838;2023-07-02T12:22:08;96867.59;;;28.23;48.52
70921;BME280;58572;48.110;19.838;2023-07-02T12:24:35;96887.47;;;28.76;49.70
70921;BME280;58572;48.110;19.838;2023-07-02T12:27:02;96898.25;;;27.73;51.95
70921;BME280;58572;48.110;19.838;2023-07-02T12:29:29;96905.72;;;26.36;52.96
70921;BME280;58572;48.110;19.838;2023-07-02T12:31:57;96902.53;;;27.51;49.91
70921;BME280;58572;48.110;19.838;2023-07-02T12:34:24;96899.50;;;27.38;51.33
70921;BME280;58572;48.110;19.838;2023-07-02T12:36:52;96898.31;;;27.01;52.24
70921;BME280;58572;48.110;19.838;2023-07-02T12:39:20;96899.22;;;27.59;50.89
70921;BME280;58572;48.110;19.838;2023-07-02T12:41:48;96846.44;;;28.22;49.87
70921;BME280;58572;48.110;19.838;2023-07-02T12:44:14;96905.06;;;29.19;48.53
70921;BME280;58572;48.110;19.838;2023-07-02T12:46:41;96906.13;;;28.82;48.57
70921;BME280;58572;48.110;19.838;2023-07-02T12:49:08;96906.84;;;27.86;50.75
70921;BME280;58572;48.110;19.838;2023-07-02T12:51:36;96901.75;;;28.35;49.07
70921;BME280;58572;48.110;19.838;2023-07-02T12:54:02;96915.31;;;27.48;50.35
70921;BME280;58572;48.110;19.838;2023-07-02T12:56:31;96912.13;;;27.50;51.53
70921;BME280;58572;48.110;19.838;2023-07-02T12:58:59;96905.84;;;27.08;52.16
70921;BME280;58572;48.110;19.838;2023-07-02T13:01:25;96915.38;;;27.45;50.79
70921;BME280;58572;48.110;19.838;2023-07-02T13:03:52;96911.13;;;28.24;49.47
70921;BME280;58572;48.110;19.838;2023-07-02T13:06:20;96911.44;;;28.30;48.13
70921;BME280;58572;48.110;19.838;2023-07-02T13:08:47;96904.00;;;28.67;47.99
70921;BME280;58572;48.110;19.838;2023-07-02T13:11:14;96900.72;;;28.72;47.69
70921;BME280;58572;48.110;19.838;2023-07-02T13:13:42;96904.59;;;28.78;47.29
70921;BME280;58572;48.110;19.838;2023-07-02T13:16:10;96914.66;;;27.98;48.40
70921;BME280;58572;48.110;19.838;2023-07-02T13:18:37;96907.84;;;27.04;50.86
70921;BME280;58572;48.110;19.838;2023-07-02T13:21:04;96920.75;;;26.87;49.80
70921;BME280;58572;48.110;19.838;2023-07-02T13:23:31;96909.09;;;27.37;51.06